sensor_id;sensor_type;location;lat;lon;timestamp;pressure;altitude;pressure_sealevel;temperature;humidity
54144;BME280;40050;47.324;18.792;2022-08-16T00:00:52;994.43;;;24.70;47.71
54144;BME280;40050;47.324;18.792;2022-08-16T00:02:55;994.39;;;24.66;48.00
54144;BME280;40050;47.324;18.792;2022-08-16T00:04:58;994.46;;;24.66;47.96
54144;BME280;40050;47.324;18.792;2022-08-16T00:07:01;994.49;;;24.64;48.00
54144;BME280;40050;47.324;18.792;2022-08-16T00:09:03;994.47;;;24.63;47.95
54144;BME280;40050;47.324;18.792;2022-08-16T00:11:07;994.46;;;24.61;48.05
54144;BME280;40050;47.324;18.792;2022-08-16T00:13:10;994.45;;;24.59;48.34
54144;BME280;40050;47.324;18.792;2022-08-16T00:15:18;994.48;;;24.56;48.69
54144;BME280;40050;47.324;18.792;2022-08-16T00:17:21;994.50;;;24.49;48.95
54144;BME280;40050;47.324;18.792;2022-08-16T00:19:27;994.49;;;24.42;49.33
54144;BME280;40050;47.324;18.792;2022-08-16T00:21:30;994.45;;;24.33;49.57
54144;BME280;40050;47.324;18.792;2022-08-16T00:23:33;994.43;;;24.24;49.50
54144;BME280;40050;47.324;18.792;2022-08-16T00:25:36;994.37;;;24.15;49.28
54144;BME280;40050;47.324;18.792;2022-08-16T00:27:38;994.36;;;24.12;48.90
54144;BME280;40050;47.324;18.792;2022-08-16T00:29:41;994.31;;;24.06;48.66
54144;BME280;40050;47.324;18.792;2022-08-16T00:31:44;994.38;;;24.05;48.49
54144;BME280;40050;47.324;18.792;2022-08-16T00:33:47;994.37;;;24.03;48.35
54144;BME280;40050;47.324;18.792;2022-08-16T00:35:49;994.38;;;23.98;48.17
54144;BME280;40050;47.324;18.792;2022-08-16T00:37:52;994.41;;;23.96;48.32
54144;BME280;40050;47.324;18.792;2022-08-16T00:39:54;994.43;;;23.94;48.45
54144;BME280;40050;47.324;18.792;2022-08-16T00:41:57;994.44;;;23.92;48.72
54144;BME280;40050;47.324;18.792;2022-08-16T00:44:02;994.44;;;23.90;49.13
54144;BME280;40050;47.324;18.792;2022-08-16T00:46:12;994.48;;;23.84;49.32
54144;BME280;40050;47.324;18.792;2022-08-16T00:48:15;994.51;;;23.77;49.42
54144;BME280;40050;47.324;18.792;2022-08-16T00:50:20;994.53;;;23.68;49.44
54144;BME280;40050;47.324;18.792;2022-08-16T00:52:23;994.55;;;23.61;49.43
54144;BME280;40050;47.324;18.792;2022-08-16T00:54:27;994.53;;;23.54;49.50
54144;BME280;40050;47.324;18.792;2022-08-16T00:56:31;994.56;;;23.49;49.61
54144;BME280;40050;47.324;18.792;2022-08-16T00:58:35;994.57;;;23.44;49.75
54144;BME280;40050;47.324;18.792;2022-08-16T01:00:38;994.57;;;23.38;49.95
54144;BME280;40050;47.324;18.792;2022-08-16T01:02:41;994.56;;;23.32;50.00
54144;BME280;40050;47.324;18.792;2022-08-16T01:04:43;994.55;;;23.28;49.99
54144;BME280;40050;47.324;18.792;2022-08-16T01:06:47;994.62;;;23.25;50.21
54144;BME280;40050;47.324;18.792;2022-08-16T01:08:51;994.56;;;23.20;50.33
54144;BME280;40050;47.324;18.792;2022-08-16T01:10:54;994.60;;;23.16;50.21
54144;BME280;40050;47.324;18.792;2022-08-16T01:12:56;994.63;;;23.12;50.14
54144;BME280;40050;47.324;18.792;2022-08-16T01:14:59;994.64;;;23.11;50.20
54144;BME280;40050;47.324;18.792;2022-08-16T01:17:02;994.64;;;23.09;50.30
54144;BME280;40050;47.324;18.792;2022-08-16T01:26:07;994.73;;;23.01;50.19
54144;BME280;40050;47.324;18.792;2022-08-16T01:28:12;994.77;;;23.01;50.22
54144;BME280;40050;47.324;18.792;2022-08-16T01:30:20;994.80;;;23.01;50.50
54144;BME280;40050;47.324;18.792;2022-08-16T01:32:23;994.72;;;22.97;50.78
54144;BME280;40050;47.324;18.792;2022-08-16T01:34:25;994.70;;;22.96;50.83
54144;BME280;40050;47.324;18.792;2022-08-16T01:36:28;994.71;;;22.92;51.34
54144;BME280;40050;47.324;18.792;2022-08-16T01:38:33;994.77;;;22.89;51.24
54144;BME280;40050;47.324;18.792;2022-08-16T01:40:36;994.77;;;22.85;51.28
54144;BME280;40050;47.324;18.792;2022-08-16T01:42:38;994.74;;;22.79;51.65
54144;BME280;40050;47.324;18.792;2022-08-16T01:44:41;994.74;;;22.77;51.72
54144;BME280;40050;47.324;18.792;2022-08-16T01:46:45;994.72;;;22.74;51.74
54144;BME280;40050;47.324;18.792;2022-08-16T01:48:48;994.71;;;22.71;51.61
54144;BME280;40050;47.324;18.792;2022-08-16T01:50:54;994.63;;;22.64;51.43
54144;BME280;40050;47.324;18.792;2022-08-16T01:52:57;994.70;;;22.60;51.10
54144;BME280;40050;47.324;18.792;2022-08-16T01:55:00;994.67;;;22.56;51.08
54144;BME280;40050;47.324;18.792;2022-08-16T01:57:03;994.64;;;22.50;51.00
54144;BME280;40050;47.324;18.792;2022-08-16T01:59:07;994.67;;;22.49;51.13
54144;BME280;40050;47.324;18.792;2022-08-16T02:01:10;994.63;;;22.46;51.24
54144;BME280;40050;47.324;18.792;2022-08-16T02:03:13;994.67;;;22.42;51.23
54144;BME280;40050;47.324;18.792;2022-08-16T02:05:15;994.64;;;22.34;51.27
54144;BME280;40050;47.324;18.792;2022-08-16T02:07:18;994.56;;;22.26;51.52
54144;BME280;40050;47.324;18.792;2022-08-16T02:09:22;994.61;;;22.25;51.75
54144;BME280;40050;47.324;18.792;2022-08-16T02:11:25;994.61;;;22.20;51.88
54144;BME280;40050;47.324;18.792;2022-08-16T02:13:28;994.60;;;22.15;51.95
54144;BME280;40050;47.324;18.792;2022-08-16T02:15:31;994.58;;;22.09;52.10
54144;BME280;40050;47.324;18.792;2022-08-16T02:17:34;994.55;;;22.05;52.34
54144;BME280;40050;47.324;18.792;2022-08-16T02:19:38;994.58;;;22.04;52.69
54144;BME280;40050;47.324;18.792;2022-08-16T02:21:42;994.59;;;22.00;52.81
54144;BME280;40050;47.324;18.792;2022-08-16T02:23:45;994.62;;;21.97;52.92
54144;BME280;40050;47.324;18.792;2022-08-16T02:25:47;994.59;;;21.93;52.46
54144;BME280;40050;47.324;18.792;2022-08-16T02:27:50;994.56;;;21.90;52.14
54144;BME280;40050;47.324;18.792;2022-08-16T02:29:52;994.54;;;21.87;52.18
54144;BME280;40050;47.324;18.792;2022-08-16T02:31:55;994.56;;;21.81;52.34
54144;BME280;40050;47.324;18.792;2022-08-16T02:33:57;994.58;;;21.79;51.92
54144;BME280;40050;47.324;18.792;2022-08-16T02:36:00;994.57;;;21.74;52.14
54144;BME280;40050;47.324;18.792;2022-08-16T02:38:02;994.58;;;21.69;52.24
54144;BME280;40050;47.324;18.792;2022-08-16T02:40:05;994.59;;;21.68;52.33
54144;BME280;40050;47.324;18.792;2022-08-16T02:42:08;994.49;;;21.63;52.45
54144;BME280;40050;47.324;18.792;2022-08-16T02:44:11;994.48;;;21.62;52.48
54144;BME280;40050;47.324;18.792;2022-08-16T02:46:14;994.48;;;21.60;52.58
54144;BME280;40050;47.324;18.792;2022-08-16T02:48:16;994.43;;;21.56;52.83
54144;BME280;40050;47.324;18.792;2022-08-16T02:50:18;994.44;;;21.55;52.73
54144;BME280;40050;47.324;18.792;2022-08-16T02:52:21;994.42;;;21.50;52.57
54144;BME280;40050;47.324;18.792;2022-08-16T02:54:24;994.49;;;21.47;52.64
54144;BME280;40050;47.324;18.792;2022-08-16T02:56:26;994.50;;;21.43;52.59
54144;BME280;40050;47.324;18.792;2022-08-16T02:58:29;994.54;;;21.40;52.64
54144;BME280;40050;47.324;18.792;2022-08-16T03:00:31;994.58;;;21.40;52.71
54144;BME280;40050;47.324;18.792;2022-08-16T03:02:35;994.56;;;21.38;52.66
54144;BME280;40050;47.324;18.792;2022-08-16T03:04:38;994.58;;;21.40;52.86
54144;BME280;40050;47.324;18.792;2022-08-16T03:06:41;994.63;;;21.41;53.07
54144;BME280;40050;47.324;18.792;2022-08-16T03:08:43;994.66;;;21.42;53.19
54144;BME280;40050;47.324;18.792;2022-08-16T03:10:46;994.65;;;21.40;53.24
54144;BME280;40050;47.324;18.792;2022-08-16T03:12:48;994.69;;;21.39;53.37
54144;BME280;40050;47.324;18.792;2022-08-16T03:14:51;994.73;;;21.38;53.51
54144;BME280;40050;47.324;18.792;2022-08-16T03:16:54;994.74;;;21.36;53.60
54144;BME280;40050;47.324;18.792;2022-08-16T03:18:56;994.78;;;21.36;53.83
54144;BME280;40050;47.324;18.792;2022-08-16T03:20:59;994.86;;;21.34;53.86
54144;BME280;40050;47.324;18.792;2022-08-16T03:23:02;994.89;;;21.33;53.87
54144;BME280;40050;47.324;18.792;2022-08-16T03:25:06;994.91;;;21.28;54.07
54144;BME280;40050;47.324;18.792;2022-08-16T03:27:09;994.99;;;21.27;54.16
54144;BME280;40050;47.324;18.792;2022-08-16T03:29:12;994.98;;;21.21;54.38
54144;BME280;40050;47.324;18.792;2022-08-16T03:31:14;995.07;;;21.15;54.51
54144;BME280;40050;47.324;18.792;2022-08-16T03:33:17;995.16;;;21.10;54.46
54144;BME280;40050;47.324;18.792;2022-08-16T03:35:21;995.13;;;21.05;54.53
54144;BME280;40050;47.324;18.792;2022-08-16T03:37:24;995.06;;;21.01;54.87
54144;BME280;40050;47.324;18.792;2022-08-16T03:39:27;995.06;;;21.00;55.06
54144;BME280;40050;47.324;18.792;2022-08-16T03:41:29;995.03;;;20.99;55.27
54144;BME280;40050;47.324;18.792;2022-08-16T03:43:32;995.06;;;20.99;55.46
54144;BME280;40050;47.324;18.792;2022-08-16T03:45:36;995.15;;;21.01;55.50
54144;BME280;40050;47.324;18.792;2022-08-16T03:47:38;995.11;;;21.01;55.82
54144;BME280;40050;47.324;18.792;2022-08-16T03:49:41;995.09;;;21.00;56.09
54144;BME280;40050;47.324;18.792;2022-08-16T03:51:44;995.06;;;21.01;56.14
54144;BME280;40050;47.324;18.792;2022-08-16T03:53:46;995.03;;;20.97;55.97
54144;BME280;40050;47.324;18.792;2022-08-16T03:55:49;995.03;;;20.92;55.90
54144;BME280;40050;47.324;18.792;2022-08-16T03:57:51;995.06;;;20.90;56.04
54144;BME280;40050;47.324;18.792;2022-08-16T03:59:54;995.05;;;20.89;56.05
54144;BME280;40050;47.324;18.792;2022-08-16T04:01:57;995.00;;;20.88;56.08
54144;BME280;40050;47.324;18.792;2022-08-16T04:04:00;995.00;;;20.88;56.18
54144;BME280;40050;47.324;18.792;2022-08-16T04:06:03;995.02;;;20.91;56.46
54144;BME280;40050;47.324;18.792;2022-08-16T04:08:05;995.03;;;20.91;56.70
54144;BME280;40050;47.324;18.792;2022-08-16T04:10:09;995.00;;;20.89;56.88
54144;BME280;40050;47.324;18.792;2022-08-16T04:12:12;995.02;;;20.90;57.13
54144;BME280;40050;47.324;18.792;2022-08-16T04:14:14;995.08;;;20.89;57.46
54144;BME280;40050;47.324;18.792;2022-08-16T04:16:17;995.08;;;20.85;57.51
54144;BME280;40050;47.324;18.792;2022-08-16T04:18:19;995.16;;;20.85;57.38
54144;BME280;40050;47.324;18.792;2022-08-16T04:20:22;995.12;;;20.85;57.34
54144;BME280;40050;47.324;18.792;2022-08-16T04:22:25;995.17;;;20.88;57.51
54144;BME280;40050;47.324;18.792;2022-08-16T04:24:27;995.16;;;20.90;57.54
54144;BME280;40050;47.324;18.792;2022-08-16T04:26:30;995.25;;;20.92;57.44
54144;BME280;40050;47.324;18.792;2022-08-16T04:28:33;995.25;;;20.94;57.28
54144;BME280;40050;47.324;18.792;2022-08-16T04:30:35;995.23;;;20.95;57.10
54144;BME280;40050;47.324;18.792;2022-08-16T04:32:38;995.31;;;20.98;57.14
54144;BME280;40050;47.324;18.792;2022-08-16T04:34:41;995.35;;;21.00;57.29
54144;BME280;40050;47.324;18.792;2022-08-16T04:36:43;995.33;;;21.03;57.49
54144;BME280;40050;47.324;18.792;2022-08-16T04:38:46;995.37;;;21.06;57.57
54144;BME280;40050;47.324;18.792;2022-08-16T04:40:48;995.39;;;21.09;57.64
54144;BME280;40050;47.324;18.792;2022-08-16T04:42:51;995.35;;;21.13;57.70
54144;BME280;40050;47.324;18.792;2022-08-16T04:44:54;995.35;;;21.15;57.54
54144;BME280;40050;47.324;18.792;2022-08-16T04:46:57;995.36;;;21.18;57.53
54144;BME280;40050;47.324;18.792;2022-08-16T04:49:00;995.34;;;21.21;57.28
54144;BME280;40050;47.324;18.792;2022-08-16T04:51:02;995.31;;;21.23;57.49
54144;BME280;40050;47.324;18.792;2022-08-16T04:53:05;995.34;;;21.27;57.22
54144;BME280;40050;47.324;18.792;2022-08-16T04:55:08;995.37;;;21.27;56.86
54144;BME280;40050;47.324;18.792;2022-08-16T04:57:11;995.31;;;21.26;56.79
54144;BME280;40050;47.324;18.792;2022-08-16T04:59:14;995.27;;;21.30;56.70
54144;BME280;40050;47.324;18.792;2022-08-16T05:01:17;995.31;;;21.33;56.86
54144;BME280;40050;47.324;18.792;2022-08-16T05:03:20;995.35;;;21.37;56.82
54144;BME280;40050;47.324;18.792;2022-08-16T05:05:22;995.40;;;21.39;56.78
54144;BME280;40050;47.324;18.792;2022-08-16T05:07:25;995.40;;;21.41;56.91
54144;BME280;40050;47.324;18.792;2022-08-16T05:09:28;995.37;;;21.42;56.56
54144;BME280;40050;47.324;18.792;2022-08-16T05:11:30;995.42;;;21.46;56.52
54144;BME280;40050;47.324;18.792;2022-08-16T05:13:34;995.38;;;21.49;56.62
54144;BME280;40050;47.324;18.792;2022-08-16T05:15:37;995.43;;;21.57;56.97
54144;BME280;40050;47.324;18.792;2022-08-16T05:17:40;995.43;;;21.61;57.04
54144;BME280;40050;47.324;18.792;2022-08-16T05:19:42;995.51;;;21.70;57.46
54144;BME280;40050;47.324;18.792;2022-08-16T05:21:45;995.48;;;21.73;57.69
54144;BME280;40050;47.324;18.792;2022-08-16T05:23:50;995.40;;;21.78;57.81
54144;BME280;40050;47.324;18.792;2022-08-16T05:25:53;995.42;;;21.85;57.71
54144;BME280;40050;47.324;18.792;2022-08-16T05:27:56;995.36;;;21.91;57.86
54144;BME280;40050;47.324;18.792;2022-08-16T05:29:58;995.41;;;21.98;57.81
54144;BME280;40050;47.324;18.792;2022-08-16T05:32:01;995.44;;;22.01;57.57
54144;BME280;40050;47.324;18.792;2022-08-16T05:34:04;995.42;;;22.05;57.48
54144;BME280;40050;47.324;18.792;2022-08-16T05:36:06;995.51;;;22.11;57.68
54144;BME280;40050;47.324;18.792;2022-08-16T05:38:09;995.54;;;22.18;57.63
54144;BME280;40050;47.324;18.792;2022-08-16T05:40:12;995.60;;;22.27;57.21
54144;BME280;40050;47.324;18.792;2022-08-16T05:42:15;995.54;;;22.32;57.11
54144;BME280;40050;47.324;18.792;2022-08-16T05:44:19;995.63;;;22.38;56.92
54144;BME280;40050;47.324;18.792;2022-08-16T05:46:21;995.67;;;22.42;57.66
54144;BME280;40050;47.324;18.792;2022-08-16T05:48:24;995.69;;;22.48;58.23
54144;BME280;40050;47.324;18.792;2022-08-16T05:50:26;995.65;;;22.54;58.33
54144;BME280;40050;47.324;18.792;2022-08-16T05:52:29;995.63;;;22.60;58.47
54144;BME280;40050;47.324;18.792;2022-08-16T05:54:31;995.65;;;22.70;58.45
54144;BME280;40050;47.324;18.792;2022-08-16T05:56:34;995.66;;;22.76;57.85
54144;BME280;40050;47.324;18.792;2022-08-16T05:58:36;995.72;;;22.83;57.73
54144;BME280;40050;47.324;18.792;2022-08-16T06:00:39;995.79;;;22.96;57.08
54144;BME280;40050;47.324;18.792;2022-08-16T06:02:42;995.86;;;23.09;56.76
54144;BME280;40050;47.324;18.792;2022-08-16T06:04:44;995.84;;;23.31;56.70
54144;BME280;40050;47.324;18.792;2022-08-16T06:06:47;995.79;;;23.43;56.58
54144;BME280;40050;47.324;18.792;2022-08-16T06:08:50;995.75;;;23.53;56.46
54144;BME280;40050;47.324;18.792;2022-08-16T06:10:52;995.72;;;23.66;55.95
54144;BME280;40050;47.324;18.792;2022-08-16T06:12:55;995.75;;;23.74;55.83
54144;BME280;40050;47.324;18.792;2022-08-16T06:15:02;995.76;;;23.82;55.69
54144;BME280;40050;47.324;18.792;2022-08-16T06:17:05;995.75;;;23.92;55.53
54144;BME280;40050;47.324;18.792;2022-08-16T06:19:07;995.74;;;23.99;55.27
54144;BME280;40050;47.324;18.792;2022-08-16T06:21:11;995.72;;;24.06;55.31
54144;BME280;40050;47.324;18.792;2022-08-16T06:23:14;995.65;;;24.18;55.68
54144;BME280;40050;47.324;18.792;2022-08-16T06:25:16;995.67;;;24.38;56.06
54144;BME280;40050;47.324;18.792;2022-08-16T06:27:19;995.66;;;24.58;55.71
54144;BME280;40050;47.324;18.792;2022-08-16T06:29:21;995.63;;;24.79;54.63
54144;BME280;40050;47.324;18.792;2022-08-16T06:31:24;995.65;;;25.00;54.13
54144;BME280;40050;47.324;18.792;2022-08-16T06:33:26;995.60;;;25.21;53.89
54144;BME280;40050;47.324;18.792;2022-08-16T06:35:29;995.64;;;25.40;54.12
54144;BME280;40050;47.324;18.792;2022-08-16T06:37:31;995.62;;;25.60;54.14
54144;BME280;40050;47.324;18.792;2022-08-16T06:39:34;995.68;;;25.83;53.23
54144;BME280;40050;47.324;18.792;2022-08-16T06:41:36;995.69;;;26.01;52.46
54144;BME280;40050;47.324;18.792;2022-08-16T06:43:39;995.69;;;26.20;51.82
54144;BME280;40050;47.324;18.792;2022-08-16T06:45:41;995.73;;;26.43;51.55
54144;BME280;40050;47.324;18.792;2022-08-16T06:47:44;995.68;;;26.64;50.53
54144;BME280;40050;47.324;18.792;2022-08-16T06:49:47;995.75;;;26.84;49.57
54144;BME280;40050;47.324;18.792;2022-08-16T06:51:49;995.76;;;27.05;49.20
54144;BME280;40050;47.324;18.792;2022-08-16T06:53:52;995.82;;;27.24;48.74
54144;BME280;40050;47.324;18.792;2022-08-16T06:55:56;995.78;;;27.44;48.57
54144;BME280;40050;47.324;18.792;2022-08-16T06:57:59;995.81;;;27.69;48.26
54144;BME280;40050;47.324;18.792;2022-08-16T07:00:03;995.81;;;27.89;47.35
54144;BME280;40050;47.324;18.792;2022-08-16T07:02:06;995.78;;;28.07;46.61
54144;BME280;40050;47.324;18.792;2022-08-16T07:04:09;995.72;;;28.23;46.14
54144;BME280;40050;47.324;18.792;2022-08-16T07:06:11;995.72;;;28.39;46.03
54144;BME280;40050;47.324;18.792;2022-08-16T07:08:14;995.65;;;28.58;45.54
54144;BME280;40050;47.324;18.792;2022-08-16T07:10:18;995.65;;;28.79;44.92
54144;BME280;40050;47.324;18.792;2022-08-16T07:12:20;995.59;;;28.94;44.69
54144;BME280;40050;47.324;18.792;2022-08-16T07:14:23;995.63;;;29.13;44.27
54144;BME280;40050;47.324;18.792;2022-08-16T07:16:26;995.58;;;29.28;43.71
54144;BME280;40050;47.324;18.792;2022-08-16T07:18:28;995.67;;;29.42;43.35
54144;BME280;40050;47.324;18.792;2022-08-16T07:20:31;995.71;;;29.58;43.11
54144;BME280;40050;47.324;18.792;2022-08-16T07:22:33;995.75;;;29.77;43.13
54144;BME280;40050;47.324;18.792;2022-08-16T07:24:36;995.79;;;29.96;42.13
54144;BME280;40050;47.324;18.792;2022-08-16T07:26:39;995.79;;;30.09;41.99
54144;BME280;40050;47.324;18.792;2022-08-16T07:28:41;995.84;;;30.24;41.10
54144;BME280;40050;47.324;18.792;2022-08-16T07:30:44;995.83;;;30.36;40.74
54144;BME280;40050;47.324;18.792;2022-08-16T07:32:47;995.80;;;30.51;40.38
54144;BME280;40050;47.324;18.792;2022-08-16T07:34:50;995.79;;;30.67;40.12
54144;BME280;40050;47.324;18.792;2022-08-16T07:36:53;995.77;;;30.80;39.46
54144;BME280;40050;47.324;18.792;2022-08-16T07:38:55;995.81;;;30.95;39.77
54144;BME280;40050;47.324;18.792;2022-08-16T07:40:58;995.76;;;31.10;39.26
54144;BME280;40050;47.324;18.792;2022-08-16T07:43:00;995.87;;;31.19;38.95
54144;BME280;40050;47.324;18.792;2022-08-16T07:45:03;995.88;;;31.30;38.46
54144;BME280;40050;47.324;18.792;2022-08-16T07:47:06;995.92;;;31.38;38.09
54144;BME280;40050;47.324;18.792;2022-08-16T07:49:09;995.92;;;31.48;37.86
54144;BME280;40050;47.324;18.792;2022-08-16T07:51:11;995.93;;;31.57;37.69
54144;BME280;40050;47.324;18.792;2022-08-16T07:53:14;995.95;;;31.64;37.02
54144;BME280;40050;47.324;18.792;2022-08-16T07:55:16;995.94;;;31.70;37.25
54144;BME280;40050;47.324;18.792;2022-08-16T07:57:19;995.99;;;31.86;36.79
54144;BME280;40050;47.324;18.792;2022-08-16T07:59:22;995.94;;;31.98;36.49
54144;BME280;40050;47.324;18.792;2022-08-16T08:01:24;995.93;;;32.11;36.37
54144;BME280;40050;47.324;18.792;2022-08-16T08:03:26;995.95;;;32.24;36.26
54144;BME280;40050;47.324;18.792;2022-08-16T08:05:29;995.94;;;32.41;36.08
54144;BME280;40050;47.324;18.792;2022-08-16T08:07:32;995.88;;;32.51;35.70
54144;BME280;40050;47.324;18.792;2022-08-16T08:09:34;995.85;;;32.70;35.58
54144;BME280;40050;47.324;18.792;2022-08-16T08:11:37;995.85;;;32.85;34.97
54144;BME280;40050;47.324;18.792;2022-08-16T08:13:39;995.83;;;32.94;34.27
54144;BME280;40050;47.324;18.792;2022-08-16T08:15:42;995.80;;;33.02;34.52
54144;BME280;40050;47.324;18.792;2022-08-16T08:17:44;995.88;;;33.19;33.93
54144;BME280;40050;47.324;18.792;2022-08-16T08:19:47;995.82;;;33.27;33.35
54144;BME280;40050;47.324;18.792;2022-08-16T08:21:49;995.80;;;33.35;33.41
54144;BME280;40050;47.324;18.792;2022-08-16T08:23:52;995.79;;;33.48;32.81
54144;BME280;40050;47.324;18.792;2022-08-16T08:25:55;995.76;;;33.52;33.03
54144;BME280;40050;47.324;18.792;2022-08-16T08:27:57;995.78;;;33.65;33.22
54144;BME280;40050;47.324;18.792;2022-08-16T08:29:59;995.79;;;33.82;32.57
54144;BME280;40050;47.324;18.792;2022-08-16T08:32:02;995.80;;;33.93;32.34
54144;BME280;40050;47.324;18.792;2022-08-16T08:34:05;995.81;;;33.99;32.17
54144;BME280;40050;47.324;18.792;2022-08-16T08:36:08;995.79;;;34.08;32.30
54144;BME280;40050;47.324;18.792;2022-08-16T08:38:10;995.80;;;34.14;32.05
54144;BME280;40050;47.324;18.792;2022-08-16T08:40:13;995.83;;;34.14;32.18
54144;BME280;40050;47.324;18.792;2022-08-16T08:42:16;995.80;;;34.23;32.33
54144;BME280;40050;47.324;18.792;2022-08-16T08:44:19;995.79;;;34.34;31.94
54144;BME280;40050;47.324;18.792;2022-08-16T08:46:22;995.73;;;34.41;31.92
54144;BME280;40050;47.324;18.792;2022-08-16T08:48:25;995.72;;;34.48;31.92
54144;BME280;40050;47.324;18.792;2022-08-16T08:50:27;995.73;;;34.61;31.57
54144;BME280;40050;47.324;18.792;2022-08-16T08:52:30;995.73;;;34.68;31.87
54144;BME280;40050;47.324;18.792;2022-08-16T08:54:32;995.77;;;34.83;31.97
54144;BME280;40050;47.324;18.792;2022-08-16T08:56:36;995.77;;;35.02;31.95
54144;BME280;40050;47.324;18.792;2022-08-16T08:58:39;995.75;;;35.10;31.48
54144;BME280;40050;47.324;18.792;2022-08-16T09:00:41;995.78;;;35.21;30.78
54144;BME280;40050;47.324;18.792;2022-08-16T09:02:44;995.81;;;35.39;30.74
54144;BME280;40050;47.324;18.792;2022-08-16T09:04:47;995.80;;;35.54;30.56
54144;BME280;40050;47.324;18.792;2022-08-16T09:06:49;995.74;;;35.67;30.43
54144;BME280;40050;47.324;18.792;2022-08-16T09:08:52;995.77;;;35.79;29.48
54144;BME280;40050;47.324;18.792;2022-08-16T09:10:54;995.79;;;35.89;29.70
54144;BME280;40050;47.324;18.792;2022-08-16T09:12:57;995.73;;;35.98;29.02
54144;BME280;40050;47.324;18.792;2022-08-16T09:15:00;995.67;;;36.05;28.92
54144;BME280;40050;47.324;18.792;2022-08-16T09:17:03;995.64;;;36.03;29.20
54144;BME280;40050;47.324;18.792;2022-08-16T09:19:06;995.63;;;36.08;29.11
54144;BME280;40050;47.324;18.792;2022-08-16T09:21:09;995.58;;;36.09;29.07
54144;BME280;40050;47.324;18.792;2022-08-16T09:23:11;995.56;;;36.11;28.64
54144;BME280;40050;47.324;18.792;2022-08-16T09:25:14;995.48;;;36.15;28.86
54144;BME280;40050;47.324;18.792;2022-08-16T09:27:17;995.51;;;36.20;28.58
54144;BME280;40050;47.324;18.792;2022-08-16T09:29:19;995.50;;;36.23;28.52
54144;BME280;40050;47.324;18.792;2022-08-16T09:31:22;995.50;;;36.33;29.19
54144;BME280;40050;47.324;18.792;2022-08-16T09:33:24;995.49;;;36.40;28.65
54144;BME280;40050;47.324;18.792;2022-08-16T09:35:27;995.49;;;36.34;28.79
54144;BME280;40050;47.324;18.792;2022-08-16T09:37:30;995.56;;;36.42;28.40
54144;BME280;40050;47.324;18.792;2022-08-16T09:39:33;995.52;;;36.41;28.34
54144;BME280;40050;47.324;18.792;2022-08-16T09:41:36;995.53;;;36.36;28.30
54144;BME280;40050;47.324;18.792;2022-08-16T09:43:39;995.57;;;36.35;28.33
54144;BME280;40050;47.324;18.792;2022-08-16T09:45:41;995.59;;;36.36;28.17
54144;BME280;40050;47.324;18.792;2022-08-16T09:47:44;995.52;;;36.34;27.95
54144;BME280;40050;47.324;18.792;2022-08-16T09:49:46;995.55;;;36.31;28.44
54144;BME280;40050;47.324;18.792;2022-08-16T09:51:49;995.53;;;36.28;28.16
54144;BME280;40050;47.324;18.792;2022-08-16T09:53:52;995.54;;;36.28;28.15
54144;BME280;40050;47.324;18.792;2022-08-16T09:55:55;995.52;;;36.30;27.87
54144;BME280;40050;47.324;18.792;2022-08-16T09:57:58;995.54;;;36.35;28.02
54144;BME280;40050;47.324;18.792;2022-08-16T10:00:00;995.57;;;36.32;28.09
54144;BME280;40050;47.324;18.792;2022-08-16T10:02:03;995.51;;;36.33;27.86
54144;BME280;40050;47.324;18.792;2022-08-16T10:04:06;995.51;;;36.41;27.13
54144;BME280;40050;47.324;18.792;2022-08-16T10:06:09;995.50;;;36.38;26.80
54144;BME280;40050;47.324;18.792;2022-08-16T10:08:12;995.53;;;36.34;27.15
54144;BME280;40050;47.324;18.792;2022-08-16T10:10:15;995.54;;;36.30;27.10
54144;BME280;40050;47.324;18.792;2022-08-16T10:12:17;995.53;;;36.28;27.14
54144;BME280;40050;47.324;18.792;2022-08-16T10:14:20;995.53;;;36.27;27.28
54144;BME280;40050;47.324;18.792;2022-08-16T10:16:23;995.49;;;36.31;26.83
54144;BME280;40050;47.324;18.792;2022-08-16T10:18:26;995.46;;;36.31;26.92
54144;BME280;40050;47.324;18.792;2022-08-16T10:20:31;995.47;;;36.35;26.54
54144;BME280;40050;47.324;18.792;2022-08-16T10:22:33;995.44;;;36.39;26.26
54144;BME280;40050;47.324;18.792;2022-08-16T10:24:36;995.47;;;36.46;26.49
54144;BME280;40050;47.324;18.792;2022-08-16T10:26:39;995.50;;;36.54;26.24
54144;BME280;40050;47.324;18.792;2022-08-16T10:28:41;995.55;;;36.56;26.51
54144;BME280;40050;47.324;18.792;2022-08-16T10:30:44;995.44;;;36.54;26.41
54144;BME280;40050;47.324;18.792;2022-08-16T10:32:46;995.47;;;36.57;27.26
54144;BME280;40050;47.324;18.792;2022-08-16T10:34:49;995.48;;;36.61;26.73
54144;BME280;40050;47.324;18.792;2022-08-16T10:36:51;995.49;;;36.60;26.34
54144;BME280;40050;47.324;18.792;2022-08-16T10:38:54;995.47;;;36.59;26.20
54144;BME280;40050;47.324;18.792;2022-08-16T10:40:57;995.47;;;36.59;26.62
54144;BME280;40050;47.324;18.792;2022-08-16T10:42:59;995.46;;;36.67;26.65
54144;BME280;40050;47.324;18.792;2022-08-16T10:45:02;995.52;;;36.70;26.47
54144;BME280;40050;47.324;18.792;2022-08-16T10:47:05;995.56;;;36.71;26.49
54144;BME280;40050;47.324;18.792;2022-08-16T10:49:12;995.47;;;36.72;25.45
54144;BME280;40050;47.324;18.792;2022-08-16T10:51:14;995.44;;;36.63;25.38
54144;BME280;40050;47.324;18.792;2022-08-16T10:53:17;995.45;;;36.53;26.16
54144;BME280;40050;47.324;18.792;2022-08-16T10:55:20;995.45;;;36.47;26.58
54144;BME280;40050;47.324;18.792;2022-08-16T10:57:22;995.41;;;36.48;26.32
54144;BME280;40050;47.324;18.792;2022-08-16T10:59:26;995.32;;;36.56;25.88
54144;BME280;40050;47.324;18.792;2022-08-16T11:01:28;995.32;;;36.50;25.70
54144;BME280;40050;47.324;18.792;2022-08-16T11:03:31;995.30;;;36.45;25.55
54144;BME280;40050;47.324;18.792;2022-08-16T11:05:34;995.30;;;36.41;26.01